Time;durP1;ratioP1;P1;durP2;ratioP2;P2;SDS_P1;SDS_P2;PMS_P1;PMS_P2;Temp;Humidity;BMP_temperature;BMP_pressure;BME280_temperature;BME280_humidity;BME280_pressure;Samples;Min_cycle;Max_cycle;Signal;HPM_P1;HPM_P2
2022/09/12 00:02:03;;;;;;;;;;;;;;;17.54;58.61;100664.44;4974684;28;6911;-83
2022/09/12 00:04:36;;;;;;;;;;;;;;;17.48;58.52;100668.63;4992366;28;6986;-83
2022/09/12 00:07:05;;;;;;;;;;;;;;;17.46;58.69;100666.84;4995513;28;6771;-84
2022/09/12 00:09:31;;;;;;;;;;;;;;;17.41;58.49;100665.88;4978138;28;7050;-83
2022/09/12 00:12:10;;;;;;;;;;;;;;;17.34;58.46;100660.53;4975814;28;6951;-83
2022/09/12 00:14:41;;;;;;;;;;;;;;;17.33;58.75;100663.06;4989802;28;8498;-83
2022/09/12 00:17:11;;;;;;;;;;;;;;;17.29;58.95;100662.16;4994720;28;6966;-82
2022/09/12 00:19:40;;;;;;;;;;;;;;;17.26;58.55;100656.00;4994091;28;7153;-83
2022/09/12 00:22:08;;;;;;;;;;;;;;;17.21;58.67;100659.34;4969889;28;8423;-84
2022/09/12 00:24:34;;;;;;;;;;;;;;;17.14;58.53;100657.47;4996025;28;7001;-83
2022/09/12 00:27:00;;;;;;;;;;;;;;;17.11;58.44;100647.00;4991709;28;7139;-83
2022/09/12 00:29:29;;;;;;;;;;;;;;;17.07;58.67;100650.38;4980786;28;8656;-83
2022/09/12 00:32:05;;;;;;;;;;;;;;;17.03;58.96;100646.81;4992923;28;7228;-84
2022/09/12 00:34:36;;;;;;;;;;;;;;;17.00;58.83;100654.53;4994132;28;8427;-83
2022/09/12 00:37:12;;;;;;;;;;;;;;;;;;;;;
2022/09/12 00:39:51;;;;;;;;;;;;;;;16.96;58.68;100644.88;4991057;28;7138;-84
2022/09/12 00:42:19;;;;;;;;;;;;;;;16.93;58.69;100648.25;4990646;28;6963;-84
2022/09/12 00:44:53;;;;;;;;;;;;;;;16.90;58.64;100647.28;4993994;28;6970;-83
2022/09/12 00:47:37;;;;;;;;;;;;;;;16.88;58.96;100652.44;4981117;28;7078;-83
2022/09/12 00:50:15;;;;;;;;;;;;;;;16.86;58.91;100650.66;4991499;28;7170;-83
2022/09/12 00:53:14;;;;;;;;;;;;;;;16.83;59.13;100653.16;4975739;28;8366;-83
2022/09/12 00:55:52;;;;;;;;;;;;;;;16.77;59.08;100634.03;4951550;28;6950;-83
2022/09/12 00:58:45;;;;;;;;;;;;;;;;;;;;;
2022/09/12 01:01:22;;;;;;;;;;;;;;;16.75;59.70;100627.97;4973968;28;6916;-83
2022/09/12 01:04:04;;;;;;;;;;;;;;;16.76;59.70;100628.84;4988287;28;7173;-83
2022/09/12 01:06:43;;;;;;;;;;;;;;;16.76;59.51;100632.28;4976304;28;8715;-84
2022/09/12 01:09:17;;;;;;;;;;;;;;;16.72;59.55;100630.47;4993986;28;7071;-83
2022/09/12 01:14:55;;;;;;;;;;;;;;;16.71;59.50;100631.31;4940362;29;6864;-83
2022/09/12 01:17:55;;;;;;;;;;;;;;;16.69;59.75;100626.94;4986260;28;7118;-83
2022/09/12 01:20:54;;;;;;;;;;;;;;;16.66;59.67;100622.53;4974991;28;7146;-83
2022/09/12 01:23:50;;;;;;;;;;;;;;;16.63;59.50;100622.47;4988806;28;6999;-84
2022/09/12 01:26:48;;;;;;;;;;;;;;;16.61;59.54;100619.81;4989597;28;6792;-83
2022/09/12 01:29:55;;;;;;;;;;;;;;;16.60;59.88;100619.78;4988867;28;7200;-83
2022/09/12 01:32:53;;;;;;;;;;;;;;;16.55;59.57;100618.78;4991007;28;6806;-83
2022/09/12 01:35:27;;;;;;;;;;;;;;;16.54;59.80;100617.03;4985267;28;7067;-82
2022/09/12 01:38:30;;;;;;;;;;;;;;;16.51;60.04;100615.25;4993692;28;6957;-83
2022/09/12 01:41:15;;;;;;;;;;;;;;;16.47;59.87;100616.88;4983289;28;6986;-84
2022/09/12 01:44:21;;;;;;;;;;;;;;;16.45;59.72;100608.19;4989675;28;7009;-83
2022/09/12 01:47:07;;;;;;;;;;;;;;;16.41;59.77;100606.34;4991651;28;7078;-83
2022/09/12 01:50:09;;;;;;;;;;;;;;;16.40;59.75;100609.75;4991464;28;6810;-83
2022/09/12 01:53:11;;;;;;;;;;;;;;;16.37;60.21;100607.09;4973387;28;6963;-83
2022/09/12 01:56:05;;;;;;;;;;;;;;;16.33;59.90;100598.38;4978976;28;7230;-83
2022/09/12 01:58:55;;;;;;;;;;;;;;;16.33;60.30;100602.69;4993012;28;6981;-83
2022/09/12 02:01:28;;;;;;;;;;;;;;;16.36;60.04;100602.78;4981883;28;6999;-83
2022/09/12 02:04:23;;;;;;;;;;;;;;;16.35;60.47;100596.69;4975172;28;6987;-84
2022/09/12 02:07:05;;;;;;;;;;;;;;;16.33;60.08;100593.22;4980249;28;6990;-82
2022/09/12 02:10:08;;;;;;;;;;;;;;;;;;;;;
2022/09/12 02:13:21;;;;;;;;;;;;;;;16.32;60.18;100585.41;4989351;28;6824;-84
2022/09/12 02:15:59;;;;;;;;;;;;;;;16.33;60.23;100587.19;4988716;28;7143;-84
2022/09/12 02:18:56;;;;;;;;;;;;;;;16.32;60.26;100575.94;4979231;28;8738;-84
2022/09/12 02:21:31;;;;;;;;;;;;;;;16.36;60.34;100582.06;4976826;28;7205;-84
2022/09/12 02:24:07;;;;;;;;;;;;;;;16.32;59.77;100573.34;4973912;28;6815;-84
2022/09/12 02:26:48;;;;;;;;;;;;;;;16.35;59.82;100575.16;4994901;28;7001;-84
2022/09/12 02:29:24;;;;;;;;;;;;;;;16.35;60.22;100573.44;4979434;28;7273;-84
2022/09/12 02:32:03;;;;;;;;;;;;;;;16.35;60.50;100575.16;4980088;28;7032;-84
2022/09/12 02:34:51;;;;;;;;;;;;;;;16.38;60.20;100575.22;4979280;28;8453;-84
2022/09/12 02:38:07;;;;;;;;;;;;;;;16.38;60.11;100570.94;4995425;28;6986;-84
2022/09/12 02:40:47;;;;;;;;;;;;;;;16.35;60.54;100578.59;4994404;28;7005;-84
2022/09/12 02:43:26;;;;;;;;;;;;;;;16.35;60.40;100569.97;4980384;28;6979;-84
2022/09/12 02:46:17;;;;;;;;;;;;;;;16.34;60.30;100570.81;4982079;28;6826;-84
2022/09/12 02:48:44;;;;;;;;;;;;;;;16.35;60.31;100564.81;4992680;28;6811;-84
2022/09/12 02:51:23;;;;;;;;;;;;;;;;;;;;;
2022/09/12 02:54:12;;;;;;;;;;;;;;;;;;;;;
2022/09/12 02:56:47;;;;;;;;;;;;;;;16.35;60.29;100567.41;4992007;28;6827;-84
2022/09/12 02:59:18;;;;;;;;;;;;;;;16.33;60.34;100561.31;4992398;28;8654;-84
2022/09/12 03:02:23;;;;;;;;;;;;;;;16.29;60.30;100567.22;4990838;28;6827;-84
2022/09/12 03:05:15;;;;;;;;;;;;;;;16.23;60.18;100566.22;4986864;28;6875;-84
2022/09/12 03:08:34;;;;;;;;;;;;;;;16.21;59.85;100561.84;4993155;28;7336;-84
2022/09/12 03:11:49;;;;;;;;;;;;;;;16.16;60.32;100559.13;4994531;28;6829;-84
2022/09/12 03:14:50;;;;;;;;;;;;;;;16.14;60.13;100558.22;4980824;28;7009;-84
2022/09/12 03:18:05;;;;;;;;;;;;;;;16.12;60.30;100554.69;4987703;28;7047;-84
2022/09/12 03:21:09;;;;;;;;;;;;;;;;;;;;;
2022/09/12 03:24:15;;;;;;;;;;;;;;;16.09;60.41;100562.38;4995600;28;7152;-85
2022/09/12 03:27:15;;;;;;;;;;;;;;;16.08;60.09;100558.03;4994659;28;7149;-84
2022/09/12 03:29:46;;;;;;;;;;;;;;;16.08;60.26;100561.50;4994742;28;7078;-84
2022/09/12 03:32:15;;;;;;;;;;;;;;;16.08;60.56;100560.63;4999543;28;7012;-84
2022/09/12 03:34:50;;;;;;;;;;;;;;;16.07;60.07;100559.72;4994959;28;6980;-84
2022/09/12 03:37:17;;;;;;;;;;;;;;;16.05;60.35;100563.13;5002572;28;6827;-84
2022/09/12 03:39:43;;;;;;;;;;;;;;;16.05;60.33;100561.41;4994871;28;7039;-84
2022/09/12 03:42:11;;;;;;;;;;;;;;;16.03;60.04;100563.09;4992402;28;6833;-84
2022/09/12 03:44:39;;;;;;;;;;;;;;;16.02;60.16;100560.44;4994756;28;8760;-84
2022/09/12 03:47:08;;;;;;;;;;;;;;;15.99;60.13;100558.66;4996193;28;7108;-84
2022/09/12 03:49:38;;;;;;;;;;;;;;;15.98;60.32;100564.66;4998059;28;6970;-84
2022/09/12 03:52:15;;;;;;;;;;;;;;;15.99;60.38;100561.25;4978989;28;8491;-84
2022/09/12 03:54:44;;;;;;;;;;;;;;;15.98;60.53;100561.19;4979963;28;6965;-84
2022/09/12 03:57:39;;;;;;;;;;;;;;;;;;;;;
2022/09/12 04:00:19;;;;;;;;;;;;;;;15.99;60.63;100555.19;4976041;28;6881;-84
2022/09/12 04:03:18;;;;;;;;;;;;;;;16.02;60.63;100551.00;4965401;28;11255;-84
2022/09/12 04:05:47;;;;;;;;;;;;;;;16.02;60.56;100550.09;4991211;28;7003;-84
2022/09/12 04:08:13;;;;;;;;;;;;;;;16.03;60.78;100546.69;4997063;28;7036;-84
2022/09/12 04:10:49;;;;;;;;;;;;;;;16.02;60.87;100539.75;4996591;28;7229;-84
2022/09/12 04:13:15;;;;;;;;;;;;;;;16.08;60.87;100546.00;4996238;28;8427;-84
2022/09/12 04:15:56;;;;;;;;;;;;;;;16.08;61.08;100543.41;4995848;28;6946;-85
2022/09/12 04:18:31;;;;;;;;;;;;;;;16.12;60.80;100546.06;4996695;28;7179;-84
2022/09/12 04:21:22;;;;;;;;;;;;;;;16.12;61.25;100546.94;4981105;28;6863;-84
2022/09/12 04:23:52;;;;;;;;;;;;;;;16.12;60.71;100546.06;4984283;28;6802;-85
2022/09/12 04:26:28;;;;;;;;;;;;;;;16.09;60.84;100539.09;4997052;28;7175;-84
2022/09/12 04:28:59;;;;;;;;;;;;;;;16.11;61.05;100532.25;4979668;28;7140;-84
2022/09/12 04:31:37;;;;;;;;;;;;;;;16.13;60.91;100538.38;5002313;28;6983;-84
2022/09/12 04:34:18;;;;;;;;;;;;;;;16.10;60.81;100538.25;4994165;28;6958;-84
2022/09/12 04:37:16;;;;;;;;;;;;;;;;;;;;;
2022/09/12 04:39:44;;;;;;;;;;;;;;;16.10;61.05;100543.44;4990457;28;6840;-85
2022/09/12 04:42:11;;;;;;;;;;;;;;;16.09;60.94;100536.53;4996393;28;7043;-84
2022/09/12 04:44:48;;;;;;;;;;;;;;;16.08;61.06;100527.00;4994424;28;6988;-85
2022/09/12 04:50:29;;;;;;;;;;;;;;;16.06;61.49;100521.78;4988897;28;6967;-84
2022/09/12 04:53:06;;;;;;;;;;;;;;;16.08;60.97;100532.19;4995568;28;6993;-84
2022/09/12 04:55:48;;;;;;;;;;;;;;;;;;;;;
2022/09/12 04:58:50;;;;;;;;;;;;;;;;;;;;;
2022/09/12 05:01:37;;;;;;;;;;;;;;;16.14;61.97;100524.59;4991635;28;6847;-84
2022/09/12 05:04:22;;;;;;;;;;;;;;;16.17;60.98;100519.50;4962977;28;6995;-84
2022/09/12 05:06:48;;;;;;;;;;;;;;;16.17;61.45;100501.41;4981688;28;6971;-84
2022/09/12 05:09:36;;;;;;;;;;;;;;;16.21;61.08;100510.97;4978351;28;6955;-85
2022/09/12 05:12:10;;;;;;;;;;;;;;;16.26;61.24;100507.66;4996233;28;6815;-84
2022/09/12 05:14:58;;;;;;;;;;;;;;;16.28;60.65;100508.56;4980870;28;7222;-84
2022/09/12 05:17:55;;;;;;;;;;;;;;;;;;;;;
2022/09/12 05:21:05;;;;;;;;;;;;;;;;;;;;;
2022/09/12 05:23:48;;;;;;;;;;;;;;;16.32;61.12;100505.22;4983579;28;6840;-85
2022/09/12 05:26:45;;;;;;;;;;;;;;;16.34;61.08;100501.00;4995216;28;8403;-84
2022/09/12 05:29:27;;;;;;;;;;;;;;;16.38;61.34;100513.16;4982896;28;6806;-84
2022/09/12 05:32:28;;;;;;;;;;;;;;;16.42;61.46;100520.16;4997277;28;7233;-84
2022/09/12 05:35:27;;;;;;;;;;;;;;;;;;;;;
2022/09/12 05:37:56;;;;;;;;;;;;;;;16.50;61.47;100521.22;4997277;28;6836;-84
2022/09/12 05:44:13;;;;;;;;;;;;;;;16.65;62.03;100527.63;4961173;28;7253;-84
2022/09/12 05:47:30;;;;;;;;;;;;;;;;;;;;;
2022/09/12 05:50:12;;;;;;;;;;;;;;;;;;;;;
2022/09/12 05:52:38;;;;;;;;;;;;;;;16.90;61.94;100528.22;4991080;28;6808;-84
2022/09/12 05:58:27;;;;;;;;;;;;;;;17.06;61.88;100527.78;4980204;28;6799;-84
2022/09/12 06:03:21;;;;;;;;;;;;;;;17.24;61.73;100535.94;4986307;28;7113;-77
2022/09/12 06:05:47;;;;;;;;;;;;;;;17.32;62.20;100536.97;4984014;28;6791;-77
2022/09/12 06:08:12;;;;;;;;;;;;;;;17.40;62.16;100545.81;4985441;28;6788;-77
2022/09/12 06:10:38;;;;;;;;;;;;;;;17.52;61.97;100542.63;4983714;28;6780;-77
2022/09/12 06:13:04;;;;;;;;;;;;;;;17.62;61.95;100546.25;4985087;28;6780;-77
2022/09/12 06:15:29;;;;;;;;;;;;;;;17.71;62.14;100543.00;4966984;28;6776;-77
2022/09/12 06:17:55;;;;;;;;;;;;;;;17.79;61.91;100541.47;4965549;28;6776;-77
2022/09/12 06:20:21;;;;;;;;;;;;;;;17.90;62.02;100546.84;4965513;28;6946;-78
2022/09/12 06:22:46;;;;;;;;;;;;;;;17.96;61.60;100540.91;4963575;28;6918;-77
2022/09/12 06:25:13;;;;;;;;;;;;;;;18.03;61.98;100537.59;4965939;28;6769;-77
2022/09/12 06:27:38;;;;;;;;;;;;;;;18.11;62.32;100537.81;4965127;28;7028;-77
2022/09/12 06:30:05;;;;;;;;;;;;;;;18.20;61.51;100539.69;4973448;28;7037;-77
2022/09/12 06:32:31;;;;;;;;;;;;;;;18.27;62.14;100532.03;4964326;28;7027;-77
2022/09/12 06:34:57;;;;;;;;;;;;;;;18.33;61.39;100526.06;4940641;28;6962;-77
2022/09/12 06:37:22;;;;;;;;;;;;;;;18.42;61.86;100526.25;4962569;28;8813;-77
2022/09/12 06:39:48;;;;;;;;;;;;;;;18.51;62.18;100529.84;4967554;28;6772;-77
2022/09/12 06:42:14;;;;;;;;;;;;;;;18.60;61.59;100530.00;4984083;28;8356;-77
2022/09/12 06:44:43;;;;;;;;;;;;;;;18.70;61.61;100524.13;4985254;28;7294;-77
2022/09/12 06:47:09;;;;;;;;;;;;;;;18.79;61.90;100525.13;4965621;28;7004;-77
2022/09/12 06:49:35;;;;;;;;;;;;;;;18.90;62.08;100539.16;4966532;28;7218;-78
2022/09/12 06:52:01;;;;;;;;;;;;;;;19.00;61.74;100532.38;4966526;28;6852;-77
2022/09/12 06:54:26;;;;;;;;;;;;;;;19.11;62.04;100532.56;4988111;28;6885;-77
2022/09/12 06:56:52;;;;;;;;;;;;;;;19.26;61.67;100540.59;4971717;28;7114;-77
2022/09/12 06:59:18;;;;;;;;;;;;;;;19.36;61.73;100539.00;4987353;28;6772;-77
2022/09/12 07:01:44;;;;;;;;;;;;;;;19.49;61.81;100540.03;4992045;28;6841;-77
2022/09/12 07:04:10;;;;;;;;;;;;;;;19.60;61.79;100536.69;4969231;28;6860;-77
2022/09/12 07:06:39;;;;;;;;;;;;;;;19.72;61.23;100536.88;4967932;28;6816;-77
2022/09/12 07:09:12;;;;;;;;;;;;;;;19.86;61.51;100544.84;4971591;28;7042;-76
2022/09/12 07:11:40;;;;;;;;;;;;;;;19.99;61.19;100545.91;4951268;28;7077;-77
2022/09/12 07:14:10;;;;;;;;;;;;;;;20.13;61.19;100543.41;4953282;28;7312;-77
2022/09/12 07:16:36;;;;;;;;;;;;;;;20.27;60.95;100546.16;4969240;28;7133;-77
2022/09/12 07:19:04;;;;;;;;;;;;;;;20.43;61.41;100548.94;4981444;28;7230;-76
2022/09/12 07:21:30;;;;;;;;;;;;;;;20.60;60.71;100549.97;4982287;28;6812;-77
2022/09/12 07:23:56;;;;;;;;;;;;;;;20.77;60.39;100539.69;4968416;28;7035;-77
2022/09/12 07:26:26;;;;;;;;;;;;;;;20.97;60.61;100543.38;4972352;28;6800;-76
2022/09/12 07:28:54;;;;;;;;;;;;;;;21.15;60.40;100548.69;4971864;28;7881;-77
2022/09/12 07:31:23;;;;;;;;;;;;;;;21.31;60.18;100535.75;4948942;28;7020;-77
2022/09/12 07:33:50;;;;;;;;;;;;;;;21.49;59.86;100538.47;4979726;28;7275;-77
2022/09/12 07:36:19;;;;;;;;;;;;;;;21.64;59.47;100531.59;4980947;28;7081;-76
2022/09/12 07:38:45;;;;;;;;;;;;;;;21.78;59.27;100535.13;4961577;28;6987;-76
2022/09/12 07:41:17;;;;;;;;;;;;;;;21.93;59.13;100530.84;4966070;28;6792;-76
2022/09/12 07:43:44;;;;;;;;;;;;;;;22.05;58.59;100530.00;4967376;28;7241;-77
2022/09/12 07:46:10;;;;;;;;;;;;;;;22.13;58.28;100525.66;4975625;28;7357;-76
2022/09/12 07:48:38;;;;;;;;;;;;;;;22.22;58.18;100524.84;4978003;28;7219;-76
2022/09/12 07:51:07;;;;;;;;;;;;;;;22.29;57.99;100528.31;4989399;28;7289;-76
2022/09/12 07:53:36;;;;;;;;;;;;;;;22.29;57.80;100521.34;4970259;28;7018;-76
2022/09/12 07:56:04;;;;;;;;;;;;;;;22.29;56.89;100518.72;4967911;28;6788;-76
2022/09/12 07:58:32;;;;;;;;;;;;;;;22.25;56.73;100529.16;4988000;28;6856;-77
2022/09/12 08:01:06;;;;;;;;;;;;;;;22.17;56.60;100521.34;4969141;28;6943;-76
2022/09/12 08:03:31;;;;;;;;;;;;;;;22.08;56.78;100521.31;4955230;28;7125;-77
2022/09/12 08:06:10;;;;;;;;;;;;;;;22.00;56.63;100521.31;4969200;28;7316;-76
2022/09/12 08:08:37;;;;;;;;;;;;;;;21.92;57.17;100531.69;4952501;28;6849;-76
2022/09/12 08:11:10;;;;;;;;;;;;;;;21.90;57.08;100521.28;4985162;28;6808;-76
2022/09/12 08:13:38;;;;;;;;;;;;;;;21.89;57.54;100526.47;4968504;28;7868;-76
2022/09/12 08:16:07;;;;;;;;;;;;;;;21.90;57.34;100520.38;4950488;28;6984;-76
2022/09/12 08:18:35;;;;;;;;;;;;;;;21.93;57.44;100528.25;4969101;28;7011;-76
2022/09/12 08:21:23;;;;;;;;;;;;;;;21.97;57.67;100532.59;4986016;28;7149;-76
2022/09/12 08:24:05;;;;;;;;;;;;;;;22.02;57.44;100533.50;4959602;28;7066;-76
2022/09/12 08:26:32;;;;;;;;;;;;;;;22.09;57.48;100518.72;4950834;28;7237;-76
2022/09/12 08:28:59;;;;;;;;;;;;;;;22.20;57.64;100524.81;4984419;28;7055;-76
2022/09/12 08:31:26;;;;;;;;;;;;;;;22.37;57.69;100526.59;4952432;28;6976;-76
2022/09/12 08:33:55;;;;;;;;;;;;;;;22.57;57.76;100521.41;4965394;28;6978;-76
2022/09/12 08:36:24;;;;;;;;;;;;;;;22.82;57.44;100521.41;4971629;28;6872;-77
2022/09/12 08:38:56;;;;;;;;;;;;;;;23.07;56.55;100521.34;4972812;28;6982;-77
2022/09/12 08:41:33;;;;;;;;;;;;;;;23.27;56.35;100523.94;4977048;28;6954;-76
2022/09/12 08:44:24;;;;;;;;;;;;;;;23.39;55.76;100520.47;4986154;28;6976;-76
2022/09/12 08:47:01;;;;;;;;;;;;;;;23.43;55.39;100513.47;4969813;28;6812;-76
2022/09/12 08:49:50;;;;;;;;;;;;;;;23.44;54.92;100513.44;4967819;28;7036;-76
2022/09/12 08:52:38;;;;;;;;;;;;;;;23.45;54.86;100506.50;4984858;28;6944;-76
2022/09/12 08:55:12;;;;;;;;;;;;;;;23.49;54.93;100513.44;4984908;28;6824;-76
2022/09/12 08:57:38;;;;;;;;;;;;;;;23.53;55.06;100511.69;4979771;28;7078;-76
2022/09/12 09:00:11;;;;;;;;;;;;;;;23.58;54.66;100518.63;4961043;28;7062;-77
2022/09/12 09:03:01;;;;;;;;;;;;;;;23.66;55.28;100510.78;4968921;28;7351;-76
2022/09/12 09:05:56;;;;;;;;;;;;;;;23.72;55.04;100508.09;4983993;28;6959;-76
2022/09/12 09:08:54;;;;;;;;;;;;;;;23.82;54.84;100515.91;4957253;28;7103;-76
2022/09/12 09:11:49;;;;;;;;;;;;;;;23.96;55.09;100506.25;4984485;28;6900;-76
2022/09/12 09:15:08;;;;;;;;;;;;;;;24.15;54.99;100518.38;4947057;28;6844;-76
2022/09/12 09:17:48;;;;;;;;;;;;;;;24.29;54.53;100505.19;4985644;28;7269;-77
2022/09/12 09:20:52;;;;;;;;;;;;;;;24.42;53.99;100506.81;4968143;28;6989;-76
2022/09/12 09:23:27;;;;;;;;;;;;;;;24.57;54.21;100503.19;4977354;28;6812;-77
2022/09/12 09:26:26;;;;;;;;;;;;;;;24.71;53.00;100497.00;4963330;28;7261;-77
2022/09/12 09:28:59;;;;;;;;;;;;;;;24.84;52.43;100490.78;4968504;28;6878;-77
2022/09/12 09:31:32;;;;;;;;;;;;;;;24.96;52.30;100492.41;4983844;28;6963;-77
2022/09/12 09:33:58;;;;;;;;;;;;;;;25.07;51.85;100490.53;4965862;28;7433;-77
2022/09/12 09:37:05;;;;;;;;;;;;;;;25.23;51.95;100479.88;4985888;28;7007;-77
2022/09/12 09:40:26;;;;;;;;;;;;;;;25.37;51.50;100477.94;4965221;28;7075;-77
2022/09/12 09:43:26;;;;;;;;;;;;;;;25.49;50.78;100482.19;4967670;28;7198;-77
2022/09/12 09:45:52;;;;;;;;;;;;;;;25.59;50.95;100475.09;4967446;28;6816;-77
2022/09/12 09:48:26;;;;;;;;;;;;;;;25.69;49.96;100469.72;4981858;28;6860;-77
2022/09/12 09:50:52;;;;;;;;;;;;;;;25.79;49.79;100463.47;4967585;28;6977;-78
2022/09/12 09:53:52;;;;;;;;;;;;;;;25.93;49.50;100471.13;4972608;28;6980;-77
2022/09/12 09:56:32;;;;;;;;;;;;;;;26.06;49.25;100466.53;4982520;28;7254;-77
2022/09/12 09:59:28;;;;;;;;;;;;;;;26.23;48.80;100463.72;4981557;28;6992;-76
2022/09/12 10:02:22;;;;;;;;;;;;;;;26.38;49.30;100459.06;4958213;28;6980;-77
2022/09/12 10:04:58;;;;;;;;;;;;;;;26.59;49.08;100457.84;4966054;28;7132;-77
2022/09/12 10:07:25;;;;;;;;;;;;;;;26.93;49.32;100459.88;4982315;28;6805;-77
2022/09/12 10:10:13;;;;;;;;;;;;;;;27.64;48.93;100456.72;4983721;28;6804;-77
2022/09/12 10:12:39;;;;;;;;;;;;;;;28.79;47.72;100449.50;4963483;28;7011;-77
2022/09/12 10:15:27;;;;;;;;;;;;;;;30.13;45.87;100448.25;4973754;28;6784;-78
2022/09/12 10:17:57;;;;;;;;;;;;;;;31.48;43.97;100441.78;4983492;28;7212;-77
2022/09/12 10:20:29;;;;;;;;;;;;;;;32.85;41.68;100434.38;4969138;28;7231;-77
2022/09/12 10:22:57;;;;;;;;;;;;;;;33.99;39.86;100429.09;4985175;28;6978;-78
2022/09/12 10:25:26;;;;;;;;;;;;;;;34.99;38.23;100422.22;4967129;28;6872;-78
2022/09/12 10:27:59;;;;;;;;;;;;;;;35.75;37.30;100420.72;4966479;28;6804;-77
2022/09/12 10:30:29;;;;;;;;;;;;;;;36.46;35.70;100414.81;4971676;28;7043;-77
2022/09/12 10:33:04;;;;;;;;;;;;;;;37.07;34.71;100417.34;4969344;28;7011;-77
2022/09/12 10:35:47;;;;;;;;;;;;;;;37.44;33.26;100411.44;4961832;28;6991;-78
2022/09/12 10:38:31;;;;;;;;;;;;;;;37.57;32.86;100415.03;4968114;28;7047;-78
2022/09/12 10:41:02;;;;;;;;;;;;;;;37.63;32.33;100408.44;4969717;28;7162;-77
2022/09/12 10:43:37;;;;;;;;;;;;;;;37.75;32.01;100404.94;4983800;28;6970;-78
2022/09/12 10:46:15;;;;;;;;;;;;;;;38.22;31.37;100399.16;4955400;28;7515;-78
2022/09/12 10:48:46;;;;;;;;;;;;;;;38.68;30.58;100397.78;4972288;28;7245;-77
2022/09/12 10:51:24;;;;;;;;;;;;;;;39.14;30.03;100404.34;4966052;28;6995;-78
2022/09/12 10:53:53;;;;;;;;;;;;;;;39.56;29.46;100401.31;4985290;28;7654;-77
2022/09/12 10:56:21;;;;;;;;;;;;;;;39.87;28.79;100386.56;4967268;28;6876;-78
2022/09/12 10:59:39;;;;;;;;;;;;;;;40.10;28.14;100391.00;4967751;28;6796;-77
2022/09/12 11:02:27;;;;;;;;;;;;;;;39.85;27.52;100392.00;4903723;29;7029;-77
2022/09/12 11:05:14;;;;;;;;;;;;;;;39.69;27.68;100379.75;4966234;28;7439;-77
2022/09/12 11:08:19;;;;;;;;;;;;;;;39.77;27.58;100381.00;4984807;28;7322;-78
2022/09/12 11:10:53;;;;;;;;;;;;;;;39.92;27.01;100384.38;4947723;28;6997;-78
2022/09/12 11:14:17;;;;;;;;;;;;;;;40.30;26.46;100369.81;4983662;28;6988;-78
2022/09/12 11:17:27;;;;;;;;;;;;;;;40.68;25.86;100370.47;4942896;29;6980;-78
2022/09/12 11:20:04;;;;;;;;;;;;;;;40.89;25.71;100367.03;4928373;29;6816;-78
2022/09/12 11:23:24;;;;;;;;;;;;;;;40.95;25.19;100359.31;4977477;28;6984;-78
2022/09/12 11:26:07;;;;;;;;;;;;;;;40.73;25.16;100353.97;4982008;28;6824;-78
2022/09/12 11:29:04;;;;;;;;;;;;;;;40.55;25.15;100358.00;4982238;28;6971;-77
2022/09/12 11:31:48;;;;;;;;;;;;;;;40.63;25.13;100353.84;4983525;28;6896;-78
2022/09/12 11:34:29;;;;;;;;;;;;;;;40.91;25.06;100348.94;4966006;28;6987;-78
2022/09/12 11:37:38;;;;;;;;;;;;;;;41.21;24.15;100350.97;4963728;28;7320;-78
2022/09/12 11:40:34;;;;;;;;;;;;;;;41.50;23.24;100347.69;4971277;28;7188;-78
2022/09/12 11:43:29;;;;;;;;;;;;;;;41.73;22.85;100350.28;4987240;28;6809;-78
2022/09/12 11:46:35;;;;;;;;;;;;;;;41.80;22.27;100339.84;4972002;28;7003;-78
2022/09/12 11:49:12;;;;;;;;;;;;;;;41.95;22.08;100340.34;4985497;28;7031;-78
2022/09/12 11:52:05;;;;;;;;;;;;;;;42.07;21.98;100341.16;4967644;28;7154;-78
2022/09/12 11:55:02;;;;;;;;;;;;;;;41.99;21.30;100332.84;4984103;28;7897;-79
2022/09/12 11:57:54;;;;;;;;;;;;;;;41.60;21.38;100333.47;4971618;28;6820;-78
2022/09/12 12:00:48;;;;;;;;;;;;;;;41.10;21.53;100333.03;4970072;28;6800;-78
2022/09/12 12:03:28;;;;;;;;;;;;;;;41.02;22.09;100338.16;4966993;28;7019;-78
2022/09/12 12:06:35;;;;;;;;;;;;;;;41.17;21.79;100327.97;4970778;28;6812;-78
2022/09/12 12:09:04;;;;;;;;;;;;;;;41.30;21.64;100321.63;4972148;28;6828;-78
2022/09/12 12:11:37;;;;;;;;;;;;;;;41.48;21.66;100324.59;4966433;28;6797;-78
2022/09/12 12:14:17;;;;;;;;;;;;;;;41.64;21.55;100318.78;4968408;28;6807;-78
2022/09/12 12:16:44;;;;;;;;;;;;;;;41.60;21.09;100318.16;4970029;28;6828;-77
2022/09/12 12:19:31;;;;;;;;;;;;;;;41.26;21.01;100321.03;4966229;28;7213;-78
2022/09/12 12:22:20;;;;;;;;;;;;;;;41.09;21.66;100320.56;4985759;28;6811;-78
2022/09/12 12:25:03;;;;;;;;;;;;;;;41.05;21.16;100319.13;4954360;28;7034;-77
2022/09/12 12:27:48;;;;;;;;;;;;;;;40.67;21.53;100309.69;4967760;28;7056;-77
2022/09/12 12:30:29;;;;;;;;;;;;;;;39.75;21.94;100316.78;4967862;28;7272;-78
2022/09/12 12:33:09;;;;;;;;;;;;;;;39.00;22.48;100314.28;4970475;28;6955;-78
2022/09/12 12:35:34;;;;;;;;;;;;;;;38.47;22.78;100307.28;4969803;28;7232;-77
2022/09/12 12:38:01;;;;;;;;;;;;;;;38.20;23.22;100308.31;4986049;28;6772;-78
2022/09/12 12:40:29;;;;;;;;;;;;;;;38.17;23.42;100310.34;4967841;28;7063;-78
2022/09/12 12:42:55;;;;;;;;;;;;;;;38.15;23.38;100310.44;4968390;28;7056;-78
2022/09/12 12:45:26;;;;;;;;;;;;;;;38.27;23.29;100300.72;4985375;28;6764;-78
2022/09/12 12:47:56;;;;;;;;;;;;;;;38.51;23.48;100304.44;4984833;28;6946;-78
2022/09/12 12:50:25;;;;;;;;;;;;;;;38.89;23.08;100296.28;4986577;28;6800;-78
2022/09/12 12:53:13;;;;;;;;;;;;;;;39.31;22.75;100289.72;4966690;28;7194;-78
2022/09/12 12:55:42;;;;;;;;;;;;;;;39.59;22.38;100292.97;4972265;28;6804;-77
2022/09/12 12:58:39;;;;;;;;;;;;;;;39.82;22.24;100287.66;4985404;28;7152;-78
2022/09/12 13:01:17;;;;;;;;;;;;;;;40.01;21.75;100280.91;4964436;28;7286;-77
2022/09/12 13:04:00;;;;;;;;;;;;;;;40.16;21.73;100281.50;4966925;28;7019;-78
2022/09/12 13:06:37;;;;;;;;;;;;;;;40.26;21.20;100275.25;4969271;28;6872;-78
2022/09/12 13:09:32;;;;;;;;;;;;;;;40.30;21.21;100283.09;4969706;28;6790;-78
2022/09/12 13:12:11;;;;;;;;;;;;;;;40.38;20.90;100283.34;4979043;28;6968;-78
2022/09/12 13:14:51;;;;;;;;;;;;;;;40.43;20.79;100278.44;4980205;28;7024;-78
2022/09/12 13:17:36;;;;;;;;;;;;;;;40.43;20.95;100280.31;4973768;28;7404;-77
2022/09/12 13:20:11;;;;;;;;;;;;;;;40.20;21.18;100275.78;4984653;28;6808;-77
2022/09/12 13:22:43;;;;;;;;;;;;;;;39.93;21.23;100276.97;4984159;28;7203;-77
2022/09/12 13:25:31;;;;;;;;;;;;;;;39.70;21.53;100271.56;4953464;28;7011;-78
2022/09/12 13:28:10;;;;;;;;;;;;;;;39.33;21.57;100266.31;4986164;28;8166;-78
2022/09/12 13:30:45;;;;;;;;;;;;;;;39.08;21.92;100262.81;4983907;28;6905;-77
2022/09/12 13:33:41;;;;;;;;;;;;;;;38.66;22.02;100267.69;4979546;28;7185;-77
2022/09/12 13:36:28;;;;;;;;;;;;;;;37.88;22.67;100267.75;4963135;28;6990;-77
2022/09/12 13:39:27;;;;;;;;;;;;;;;36.74;23.17;100251.16;4985848;28;6950;-77
2022/09/12 13:42:36;;;;;;;;;;;;;;;35.82;24.17;100259.47;4941677;28;7330;-77
2022/09/12 13:45:26;;;;;;;;;;;;;;;35.47;24.71;100251.78;4982598;28;7228;-77
2022/09/12 13:47:58;;;;;;;;;;;;;;;35.61;25.02;100250.97;4969963;28;6879;-77
2022/09/12 13:50:51;;;;;;;;;;;;;;;35.85;24.99;100243.31;4978387;28;7222;-78
2022/09/12 13:53:25;;;;;;;;;;;;;;;36.05;24.23;100243.00;4972505;28;7216;-77
2022/09/12 13:55:56;;;;;;;;;;;;;;;36.17;24.93;100236.09;4968636;28;6820;-77
2022/09/12 13:58:29;;;;;;;;;;;;;;;36.34;24.43;100238.56;4967194;28;6808;-77
2022/09/12 14:01:09;;;;;;;;;;;;;;;36.51;24.49;100224.13;4966379;28;6850;-77
2022/09/12 14:06:48;;;;;;;;;;;;;;;36.73;24.09;100221.94;4982594;28;6804;-77
2022/09/12 14:09:38;;;;;;;;;;;;;;;36.74;23.81;100216.47;4984164;28;7535;-78
2022/09/12 14:12:24;;;;;;;;;;;;;;;36.68;23.48;100215.06;4979045;28;6816;-78
2022/09/12 14:14:52;;;;;;;;;;;;;;;36.57;23.67;100217.56;4969802;28;7051;-78
2022/09/12 14:17:35;;;;;;;;;;;;;;;36.57;23.61;100211.41;4989206;28;6999;-78
2022/09/12 14:20:12;;;;;;;;;;;;;;;36.61;24.05;100213.78;4978796;28;6816;-77
2022/09/12 14:22:40;;;;;;;;;;;;;;;36.72;24.06;100209.53;4966063;28;8103;-78
2022/09/12 14:25:14;;;;;;;;;;;;;;;36.82;24.25;100205.31;4968096;28;6834;-76
2022/09/12 14:27:49;;;;;;;;;;;;;;;36.93;23.65;100201.91;4969046;28;7624;-77
2022/09/12 14:30:31;;;;;;;;;;;;;;;36.80;23.47;100196.56;4983969;28;6880;-78